Terminal Aerodrome Forecast
Issued by NWS Missoula, MT

Home | Current Version | Previous Version | Text Only | Print | Product List | Glossary On
Versions: 1 2 3 4 5 6 7 8 9 10 11 12 13 14 15 16 17 18 19
000
FTUS45 KMSO 301120
TAFGPI
TAF
KGPI 301120Z 3012/3112 36012KT P6SM -TSRA FEW060 OVC080CB
     FM301230 VRB06KT P6SM -SHRA OVC080
     FM302300 15010KT P6SM -SHRA VCTS OVC060CB
     FM310100 18010KT P6SM VCSH OVC060
     FM310800 VRB04KT P6SM BKN100=

USA.gov is the U.S. government's official web portal to all federal, state and local government web resources and services.